sensor_id;sensor_type;location;lat;lon;timestamp;P1;durP1;ratioP1;P2;durP2;ratioP2
59930;SDS011;45790;51.538;6.736;2023-07-20T00:00:21;5.78;;;2.90;;
59930;SDS011;45790;51.538;6.736;2023-07-20T00:02:49;4.88;;;2.70;;
59930;SDS011;45790;51.538;6.736;2023-07-20T00:05:14;7.10;;;2.90;;
59930;SDS011;45790;51.538;6.736;2023-07-20T00:07:43;5.88;;;3.03;;
59930;SDS011;45790;51.538;6.736;2023-07-20T00:10:08;6.25;;;3.00;;
59930;SDS011;45790;51.538;6.736;2023-07-20T00:12:33;6.25;;;3.38;;
59930;SDS011;45790;51.538;6.736;2023-07-20T00:14:59;8.13;;;3.00;;
59930;SDS011;45790;51.538;6.736;2023-07-20T00:17:24;7.20;;;3.30;;
59930;SDS011;45790;51.538;6.736;2023-07-20T00:19:49;7.35;;;3.40;;
59930;SDS011;45790;51.538;6.736;2023-07-20T00:22:14;6.93;;;3.17;;
59930;SDS011;45790;51.538;6.736;2023-07-20T00:24:40;8.65;;;3.60;;
59930;SDS011;45790;51.538;6.736;2023-07-20T00:27:05;8.13;;;3.30;;
59930;SDS011;45790;51.538;6.736;2023-07-20T00:29:31;8.50;;;3.72;;
59930;SDS011;45790;51.538;6.736;2023-07-20T00:31:56;6.13;;;3.75;;
59930;SDS011;45790;51.538;6.736;2023-07-20T00:34:21;6.27;;;3.93;;
59930;SDS011;45790;51.538;6.736;2023-07-20T00:36:46;8.30;;;3.50;;
59930;SDS011;45790;51.538;6.736;2023-07-20T00:39:13;6.45;;;3.42;;
59930;SDS011;45790;51.538;6.736;2023-07-20T00:41:39;6.87;;;3.53;;
59930;SDS011;45790;51.538;6.736;2023-07-20T00:44:04;6.43;;;4.03;;
59930;SDS011;45790;51.538;6.736;2023-07-20T00:46:29;7.00;;;3.53;;
59930;SDS011;45790;51.538;6.736;2023-07-20T00:48:56;8.35;;;3.40;;
59930;SDS011;45790;51.538;6.736;2023-07-20T00:51:22;5.85;;;3.30;;
59930;SDS011;45790;51.538;6.736;2023-07-20T00:53:48;5.65;;;3.75;;
59930;SDS011;45790;51.538;6.736;2023-07-20T00:56:14;5.80;;;3.47;;
59930;SDS011;45790;51.538;6.736;2023-07-20T00:58:39;8.98;;;3.75;;
59930;SDS011;45790;51.538;6.736;2023-07-20T01:01:04;6.63;;;3.45;;
59930;SDS011;45790;51.538;6.736;2023-07-20T01:03:30;5.82;;;3.15;;
59930;SDS011;45790;51.538;6.736;2023-07-20T01:14:11;6.45;;;3.42;;
59930;SDS011;45790;51.538;6.736;2023-07-20T01:16:37;6.30;;;3.30;;
59930;SDS011;45790;51.538;6.736;2023-07-20T01:19:02;7.43;;;3.37;;
59930;SDS011;45790;51.538;6.736;2023-07-20T01:26:54;8.10;;;3.60;;
59930;SDS011;45790;51.538;6.736;2023-07-20T01:31:59;7.68;;;3.35;;
59930;SDS011;45790;51.538;6.736;2023-07-20T01:34:28;6.00;;;3.50;;
59930;SDS011;45790;51.538;6.736;2023-07-20T01:36:54;6.97;;;3.58;;
59930;SDS011;45790;51.538;6.736;2023-07-20T01:39:20;7.63;;;3.78;;
59930;SDS011;45790;51.538;6.736;2023-07-20T01:41:45;6.32;;;3.35;;
59930;SDS011;45790;51.538;6.736;2023-07-20T01:44:12;7.75;;;3.63;;
59930;SDS011;45790;51.538;6.736;2023-07-20T01:46:37;8.25;;;3.53;;
59930;SDS011;45790;51.538;6.736;2023-07-20T01:49:03;8.32;;;3.75;;
59930;SDS011;45790;51.538;6.736;2023-07-20T01:51:28;8.73;;;4.00;;
59930;SDS011;45790;51.538;6.736;2023-07-20T01:53:53;8.82;;;3.83;;
59930;SDS011;45790;51.538;6.736;2023-07-20T01:56:18;6.72;;;3.80;;
59930;SDS011;45790;51.538;6.736;2023-07-20T01:58:44;9.17;;;3.97;;
59930;SDS011;45790;51.538;6.736;2023-07-20T02:01:09;8.15;;;4.03;;
59930;SDS011;45790;51.538;6.736;2023-07-20T02:03:34;9.67;;;4.40;;
59930;SDS011;45790;51.538;6.736;2023-07-20T02:06:00;9.38;;;3.85;;
59930;SDS011;45790;51.538;6.736;2023-07-20T02:08:25;6.50;;;3.73;;
59930;SDS011;45790;51.538;6.736;2023-07-20T02:10:51;6.97;;;4.18;;
59930;SDS011;45790;51.538;6.736;2023-07-20T02:13:16;9.77;;;4.20;;
59930;SDS011;45790;51.538;6.736;2023-07-20T02:15:42;6.80;;;4.03;;
59930;SDS011;45790;51.538;6.736;2023-07-20T02:18:12;6.95;;;4.15;;
59930;SDS011;45790;51.538;6.736;2023-07-20T02:20:37;9.17;;;4.43;;
59930;SDS011;45790;51.538;6.736;2023-07-20T02:23:02;10.40;;;4.97;;
59930;SDS011;45790;51.538;6.736;2023-07-20T02:25:27;6.83;;;4.83;;
59930;SDS011;45790;51.538;6.736;2023-07-20T02:27:52;8.43;;;4.90;;
59930;SDS011;45790;51.538;6.736;2023-07-20T02:30:18;8.63;;;5.00;;
59930;SDS011;45790;51.538;6.736;2023-07-20T02:32:43;8.55;;;4.70;;
59930;SDS011;45790;51.538;6.736;2023-07-20T02:35:13;9.10;;;4.95;;
59930;SDS011;45790;51.538;6.736;2023-07-20T02:37:38;7.25;;;4.93;;
59930;SDS011;45790;51.538;6.736;2023-07-20T02:40:04;8.05;;;5.40;;
59930;SDS011;45790;51.538;6.736;2023-07-20T02:42:30;8.13;;;5.82;;
59930;SDS011;45790;51.538;6.736;2023-07-20T02:44:55;9.75;;;5.88;;
59930;SDS011;45790;51.538;6.736;2023-07-20T02:47:20;11.77;;;5.57;;
59930;SDS011;45790;51.538;6.736;2023-07-20T02:49:46;7.20;;;5.25;;
59930;SDS011;45790;51.538;6.736;2023-07-20T02:52:11;9.23;;;5.37;;
59930;SDS011;45790;51.538;6.736;2023-07-20T02:54:36;8.40;;;5.07;;
59930;SDS011;45790;51.538;6.736;2023-07-20T02:57:01;7.20;;;4.90;;
59930;SDS011;45790;51.538;6.736;2023-07-20T02:59:27;7.45;;;5.32;;
59930;SDS011;45790;51.538;6.736;2023-07-20T03:01:52;8.60;;;5.82;;
59930;SDS011;45790;51.538;6.736;2023-07-20T03:04:17;8.48;;;6.05;;
59930;SDS011;45790;51.538;6.736;2023-07-20T03:06:42;12.60;;;5.97;;
59930;SDS011;45790;51.538;6.736;2023-07-20T03:09:08;9.23;;;6.07;;
59930;SDS011;45790;51.538;6.736;2023-07-20T03:11:34;9.20;;;5.50;;
59930;SDS011;45790;51.538;6.736;2023-07-20T03:13:59;8.85;;;5.47;;
59930;SDS011;45790;51.538;6.736;2023-07-20T03:16:24;7.33;;;5.47;;
59930;SDS011;45790;51.538;6.736;2023-07-20T03:18:50;10.05;;;6.50;;
59930;SDS011;45790;51.538;6.736;2023-07-20T03:21:15;9.43;;;6.55;;
59930;SDS011;45790;51.538;6.736;2023-07-20T03:23:41;9.75;;;6.43;;
59930;SDS011;45790;51.538;6.736;2023-07-20T03:26:06;11.30;;;6.63;;
59930;SDS011;45790;51.538;6.736;2023-07-20T03:28:35;10.13;;;6.68;;
59930;SDS011;45790;51.538;6.736;2023-07-20T03:31:00;8.82;;;6.57;;
59930;SDS011;45790;51.538;6.736;2023-07-20T03:33:26;12.65;;;6.60;;
59930;SDS011;45790;51.538;6.736;2023-07-20T03:35:51;11.60;;;6.57;;
59930;SDS011;45790;51.538;6.736;2023-07-20T03:38:17;9.52;;;7.22;;
59930;SDS011;45790;51.538;6.736;2023-07-20T03:43:16;10.85;;;7.30;;
59930;SDS011;45790;51.538;6.736;2023-07-20T03:45:41;10.13;;;7.38;;
59930;SDS011;45790;51.538;6.736;2023-07-20T03:48:06;9.90;;;7.30;;
59930;SDS011;45790;51.538;6.736;2023-07-20T03:50:32;10.77;;;7.50;;
59930;SDS011;45790;51.538;6.736;2023-07-20T03:52:58;12.30;;;7.90;;
59930;SDS011;45790;51.538;6.736;2023-07-20T03:55:23;10.77;;;8.20;;
59930;SDS011;45790;51.538;6.736;2023-07-20T03:57:48;13.53;;;8.47;;
59930;SDS011;45790;51.538;6.736;2023-07-20T04:00:15;12.05;;;8.15;;
59930;SDS011;45790;51.538;6.736;2023-07-20T04:02:41;14.00;;;9.43;;
59930;SDS011;45790;51.538;6.736;2023-07-20T04:05:06;15.32;;;9.52;;
59930;SDS011;45790;51.538;6.736;2023-07-20T04:07:32;15.02;;;8.10;;
59930;SDS011;45790;51.538;6.736;2023-07-20T04:09:57;10.47;;;7.70;;
59930;SDS011;45790;51.538;6.736;2023-07-20T04:12:22;10.80;;;7.82;;
59930;SDS011;45790;51.538;6.736;2023-07-20T04:14:47;10.77;;;8.30;;
59930;SDS011;45790;51.538;6.736;2023-07-20T04:17:12;10.25;;;7.93;;
59930;SDS011;45790;51.538;6.736;2023-07-20T04:19:38;12.68;;;8.10;;
59930;SDS011;45790;51.538;6.736;2023-07-20T04:22:03;11.05;;;7.45;;
59930;SDS011;45790;51.538;6.736;2023-07-20T04:24:29;11.00;;;6.30;;
59930;SDS011;45790;51.538;6.736;2023-07-20T04:26:54;9.60;;;6.10;;
59930;SDS011;45790;51.538;6.736;2023-07-20T04:29:19;8.13;;;6.05;;
59930;SDS011;45790;51.538;6.736;2023-07-20T04:31:44;10.68;;;5.82;;
59930;SDS011;45790;51.538;6.736;2023-07-20T04:34:09;8.45;;;6.30;;
59930;SDS011;45790;51.538;6.736;2023-07-20T04:36:35;7.68;;;5.57;;
59930;SDS011;45790;51.538;6.736;2023-07-20T04:39:00;9.50;;;6.10;;
59930;SDS011;45790;51.538;6.736;2023-07-20T04:41:26;6.97;;;5.25;;
59930;SDS011;45790;51.538;6.736;2023-07-20T04:43:51;9.52;;;5.53;;
59930;SDS011;45790;51.538;6.736;2023-07-20T04:46:16;7.93;;;5.30;;
59930;SDS011;45790;51.538;6.736;2023-07-20T04:48:43;8.20;;;5.15;;
59930;SDS011;45790;51.538;6.736;2023-07-20T04:51:08;7.77;;;4.97;;
59930;SDS011;45790;51.538;6.736;2023-07-20T04:53:35;6.57;;;4.63;;
59930;SDS011;45790;51.538;6.736;2023-07-20T04:56:00;6.50;;;4.75;;
59930;SDS011;45790;51.538;6.736;2023-07-20T04:58:25;6.32;;;4.43;;
59930;SDS011;45790;51.538;6.736;2023-07-20T05:00:51;7.78;;;4.65;;
59930;SDS011;45790;51.538;6.736;2023-07-20T05:03:16;6.85;;;4.38;;
59930;SDS011;45790;51.538;6.736;2023-07-20T05:05:42;6.75;;;4.75;;
59930;SDS011;45790;51.538;6.736;2023-07-20T05:08:07;9.15;;;3.80;;
59930;SDS011;45790;51.538;6.736;2023-07-20T05:10:32;6.50;;;3.72;;
59930;SDS011;45790;51.538;6.736;2023-07-20T05:12:58;7.15;;;4.15;;
59930;SDS011;45790;51.538;6.736;2023-07-20T05:15:23;6.45;;;3.63;;
59930;SDS011;45790;51.538;6.736;2023-07-20T05:17:48;10.67;;;3.73;;
59930;SDS011;45790;51.538;6.736;2023-07-20T05:20:14;5.50;;;3.58;;
59930;SDS011;45790;51.538;6.736;2023-07-20T05:22:39;4.40;;;3.47;;
59930;SDS011;45790;51.538;6.736;2023-07-20T05:25:08;4.70;;;3.63;;
59930;SDS011;45790;51.538;6.736;2023-07-20T05:27:34;4.38;;;3.15;;
59930;SDS011;45790;51.538;6.736;2023-07-20T05:29:59;4.82;;;3.40;;
59930;SDS011;45790;51.538;6.736;2023-07-20T05:32:25;5.47;;;3.65;;
59930;SDS011;45790;51.538;6.736;2023-07-20T05:34:53;5.40;;;3.73;;
59930;SDS011;45790;51.538;6.736;2023-07-20T05:37:19;5.00;;;3.60;;
59930;SDS011;45790;51.538;6.736;2023-07-20T05:39:44;4.97;;;3.00;;
59930;SDS011;45790;51.538;6.736;2023-07-20T05:42:09;7.63;;;3.35;;
59930;SDS011;45790;51.538;6.736;2023-07-20T05:44:34;5.40;;;3.10;;
59930;SDS011;45790;51.538;6.736;2023-07-20T05:47:00;5.28;;;2.95;;
59930;SDS011;45790;51.538;6.736;2023-07-20T05:49:25;6.85;;;3.40;;
59930;SDS011;45790;51.538;6.736;2023-07-20T05:51:50;5.35;;;2.83;;
59930;SDS011;45790;51.538;6.736;2023-07-20T05:54:15;5.23;;;3.00;;
59930;SDS011;45790;51.538;6.736;2023-07-20T05:56:41;4.50;;;2.38;;
59930;SDS011;45790;51.538;6.736;2023-07-20T05:59:06;7.65;;;3.20;;
59930;SDS011;45790;51.538;6.736;2023-07-20T06:01:31;5.03;;;2.92;;
59930;SDS011;45790;51.538;6.736;2023-07-20T06:03:57;5.05;;;2.88;;
59930;SDS011;45790;51.538;6.736;2023-07-20T06:06:22;2.93;;;2.60;;
59930;SDS011;45790;51.538;6.736;2023-07-20T06:08:47;7.85;;;3.30;;
59930;SDS011;45790;51.538;6.736;2023-07-20T06:11:12;3.85;;;2.80;;
59930;SDS011;45790;51.538;6.736;2023-07-20T06:13:38;4.80;;;2.67;;
59930;SDS011;45790;51.538;6.736;2023-07-20T06:16:03;4.03;;;2.65;;
59930;SDS011;45790;51.538;6.736;2023-07-20T06:18:28;4.10;;;2.45;;
59930;SDS011;45790;51.538;6.736;2023-07-20T06:20:55;8.00;;;3.10;;
59930;SDS011;45790;51.538;6.736;2023-07-20T06:23:20;5.50;;;2.80;;
59930;SDS011;45790;51.538;6.736;2023-07-20T06:25:45;4.30;;;2.15;;
59930;SDS011;45790;51.538;6.736;2023-07-20T06:28:11;2.90;;;2.20;;
59930;SDS011;45790;51.538;6.736;2023-07-20T06:30:36;4.93;;;2.47;;
59930;SDS011;45790;51.538;6.736;2023-07-20T06:33:01;3.83;;;2.40;;
59930;SDS011;45790;51.538;6.736;2023-07-20T06:35:27;3.35;;;2.10;;
59930;SDS011;45790;51.538;6.736;2023-07-20T06:37:52;3.30;;;2.10;;
59930;SDS011;45790;51.538;6.736;2023-07-20T06:40:17;5.18;;;1.98;;
59930;SDS011;45790;51.538;6.736;2023-07-20T06:42:43;4.32;;;1.65;;
59930;SDS011;45790;51.538;6.736;2023-07-20T06:45:08;3.20;;;1.98;;
59930;SDS011;45790;51.538;6.736;2023-07-20T06:47:34;3.20;;;1.80;;
59930;SDS011;45790;51.538;6.736;2023-07-20T06:49:59;5.55;;;1.80;;
59930;SDS011;45790;51.538;6.736;2023-07-20T06:52:24;2.58;;;1.90;;
59930;SDS011;45790;51.538;6.736;2023-07-20T06:54:50;2.45;;;1.63;;
59930;SDS011;45790;51.538;6.736;2023-07-20T06:57:15;4.13;;;2.00;;
59930;SDS011;45790;51.538;6.736;2023-07-20T06:59:40;3.30;;;1.65;;
59930;SDS011;45790;51.538;6.736;2023-07-20T07:02:06;4.97;;;2.03;;
59930;SDS011;45790;51.538;6.736;2023-07-20T07:04:31;4.50;;;2.03;;
59930;SDS011;45790;51.538;6.736;2023-07-20T07:06:56;4.25;;;1.75;;
59930;SDS011;45790;51.538;6.736;2023-07-20T07:09:21;2.50;;;1.42;;
59930;SDS011;45790;51.538;6.736;2023-07-20T07:11:47;3.47;;;1.88;;
59930;SDS011;45790;51.538;6.736;2023-07-20T07:14:12;3.08;;;1.63;;
59930;SDS011;45790;51.538;6.736;2023-07-20T07:16:37;2.23;;;1.30;;
59930;SDS011;45790;51.538;6.736;2023-07-20T07:19:03;3.90;;;1.35;;
59930;SDS011;45790;51.538;6.736;2023-07-20T07:21:28;3.42;;;1.20;;
59930;SDS011;45790;51.538;6.736;2023-07-20T07:23:54;4.10;;;1.40;;
59930;SDS011;45790;51.538;6.736;2023-07-20T07:26:22;2.17;;;1.20;;
59930;SDS011;45790;51.538;6.736;2023-07-20T07:28:47;3.42;;;1.40;;
59930;SDS011;45790;51.538;6.736;2023-07-20T07:31:12;3.97;;;1.60;;
59930;SDS011;45790;51.538;6.736;2023-07-20T07:33:37;1.92;;;1.30;;
59930;SDS011;45790;51.538;6.736;2023-07-20T07:36:03;2.37;;;1.30;;
59930;SDS011;45790;51.538;6.736;2023-07-20T07:38:28;3.03;;;1.20;;
59930;SDS011;45790;51.538;6.736;2023-07-20T07:40:54;4.22;;;1.70;;
59930;SDS011;45790;51.538;6.736;2023-07-20T07:43:19;2.72;;;0.98;;
59930;SDS011;45790;51.538;6.736;2023-07-20T07:45:44;4.43;;;0.90;;
59930;SDS011;45790;51.538;6.736;2023-07-20T07:48:09;2.40;;;1.00;;
59930;SDS011;45790;51.538;6.736;2023-07-20T07:50:37;1.95;;;0.80;;
59930;SDS011;45790;51.538;6.736;2023-07-20T07:53:03;3.92;;;1.30;;
59930;SDS011;45790;51.538;6.736;2023-07-20T07:55:28;3.60;;;1.30;;
59930;SDS011;45790;51.538;6.736;2023-07-20T07:57:53;1.67;;;1.08;;
59930;SDS011;45790;51.538;6.736;2023-07-20T08:00:19;1.67;;;1.00;;
59930;SDS011;45790;51.538;6.736;2023-07-20T08:02:44;1.63;;;1.15;;
59930;SDS011;45790;51.538;6.736;2023-07-20T08:05:10;2.65;;;1.20;;
59930;SDS011;45790;51.538;6.736;2023-07-20T08:07:35;1.85;;;1.00;;
59930;SDS011;45790;51.538;6.736;2023-07-20T08:10:01;2.45;;;1.13;;
59930;SDS011;45790;51.538;6.736;2023-07-20T08:12:26;2.53;;;1.00;;
59930;SDS011;45790;51.538;6.736;2023-07-20T08:14:52;1.25;;;0.80;;
59930;SDS011;45790;51.538;6.736;2023-07-20T08:17:17;2.25;;;1.05;;
59930;SDS011;45790;51.538;6.736;2023-07-20T08:19:42;1.70;;;0.90;;
59930;SDS011;45790;51.538;6.736;2023-07-20T08:22:09;1.40;;;0.90;;
59930;SDS011;45790;51.538;6.736;2023-07-20T08:24:34;0.70;;;0.63;;
59930;SDS011;45790;51.538;6.736;2023-07-20T08:26:59;1.10;;;0.77;;
59930;SDS011;45790;51.538;6.736;2023-07-20T08:29:24;2.58;;;0.77;;
59930;SDS011;45790;51.538;6.736;2023-07-20T08:31:50;1.93;;;0.80;;
59930;SDS011;45790;51.538;6.736;2023-07-20T08:34:15;1.30;;;0.70;;
59930;SDS011;45790;51.538;6.736;2023-07-20T08:36:40;2.73;;;0.80;;
59930;SDS011;45790;51.538;6.736;2023-07-20T08:39:06;2.97;;;0.93;;
59930;SDS011;45790;51.538;6.736;2023-07-20T08:41:31;1.80;;;0.60;;
59930;SDS011;45790;51.538;6.736;2023-07-20T08:43:56;1.75;;;0.68;;
59930;SDS011;45790;51.538;6.736;2023-07-20T08:46:22;1.23;;;0.65;;
59930;SDS011;45790;51.538;6.736;2023-07-20T08:48:48;1.23;;;0.52;;
59930;SDS011;45790;51.538;6.736;2023-07-20T08:51:13;1.10;;;0.50;;
59930;SDS011;45790;51.538;6.736;2023-07-20T08:53:39;3.95;;;0.82;;
59930;SDS011;45790;51.538;6.736;2023-07-20T08:56:04;2.47;;;0.70;;
59930;SDS011;45790;51.538;6.736;2023-07-20T08:58:30;1.95;;;0.68;;
59930;SDS011;45790;51.538;6.736;2023-07-20T09:00:55;2.80;;;0.60;;
59930;SDS011;45790;51.538;6.736;2023-07-20T09:03:21;2.20;;;0.60;;
59930;SDS011;45790;51.538;6.736;2023-07-20T09:05:46;0.95;;;0.52;;
59930;SDS011;45790;51.538;6.736;2023-07-20T09:08:11;1.75;;;0.57;;
59930;SDS011;45790;51.538;6.736;2023-07-20T09:10:37;1.52;;;0.70;;
59930;SDS011;45790;51.538;6.736;2023-07-20T09:13:02;1.93;;;0.70;;
59930;SDS011;45790;51.538;6.736;2023-07-20T09:15:28;1.50;;;0.70;;
59930;SDS011;45790;51.538;6.736;2023-07-20T09:17:53;1.48;;;0.70;;
59930;SDS011;45790;51.538;6.736;2023-07-20T09:20:19;1.67;;;0.65;;
59930;SDS011;45790;51.538;6.736;2023-07-20T09:22:45;2.15;;;0.70;;
59930;SDS011;45790;51.538;6.736;2023-07-20T09:25:13;1.25;;;0.70;;
59930;SDS011;45790;51.538;6.736;2023-07-20T09:27:39;2.17;;;0.70;;
59930;SDS011;45790;51.538;6.736;2023-07-20T09:30:05;1.70;;;0.70;;
59930;SDS011;45790;51.538;6.736;2023-07-20T09:32:37;2.72;;;0.70;;
59930;SDS011;45790;51.538;6.736;2023-07-20T09:35:03;1.40;;;0.50;;
59930;SDS011;45790;51.538;6.736;2023-07-20T09:37:28;1.92;;;0.52;;
59930;SDS011;45790;51.538;6.736;2023-07-20T09:39:57;0.90;;;0.40;;
59930;SDS011;45790;51.538;6.736;2023-07-20T09:42:23;1.10;;;0.40;;
59930;SDS011;45790;51.538;6.736;2023-07-20T09:44:50;1.92;;;0.60;;
59930;SDS011;45790;51.538;6.736;2023-07-20T09:47:21;2.08;;;0.60;;
59930;SDS011;45790;51.538;6.736;2023-07-20T09:49:46;1.05;;;0.50;;
59930;SDS011;45790;51.538;6.736;2023-07-20T09:52:12;1.33;;;0.50;;
59930;SDS011;45790;51.538;6.736;2023-07-20T09:54:38;2.80;;;0.80;;
59930;SDS011;45790;51.538;6.736;2023-07-20T09:57:03;1.17;;;0.35;;
59930;SDS011;45790;51.538;6.736;2023-07-20T09:59:29;1.90;;;0.63;;
59930;SDS011;45790;51.538;6.736;2023-07-20T10:01:56;0.98;;;0.50;;
59930;SDS011;45790;51.538;6.736;2023-07-20T10:04:22;1.48;;;0.50;;
59930;SDS011;45790;51.538;6.736;2023-07-20T10:06:48;0.88;;;0.45;;
59930;SDS011;45790;51.538;6.736;2023-07-20T10:09:14;0.73;;;0.32;;
59930;SDS011;45790;51.538;6.736;2023-07-20T10:11:40;0.65;;;0.43;;
59930;SDS011;45790;51.538;6.736;2023-07-20T10:14:08;1.20;;;0.40;;
59930;SDS011;45790;51.538;6.736;2023-07-20T10:16:36;1.58;;;0.40;;
59930;SDS011;45790;51.538;6.736;2023-07-20T10:19:09;1.10;;;0.45;;
59930;SDS011;45790;51.538;6.736;2023-07-20T10:21:37;1.15;;;0.40;;
59930;SDS011;45790;51.538;6.736;2023-07-20T10:24:05;0.68;;;0.43;;
59930;SDS011;45790;51.538;6.736;2023-07-20T10:26:30;2.17;;;0.40;;
59930;SDS011;45790;51.538;6.736;2023-07-20T10:28:56;1.25;;;0.40;;
59930;SDS011;45790;51.538;6.736;2023-07-20T10:31:22;0.73;;;0.30;;
59930;SDS011;45790;51.538;6.736;2023-07-20T10:33:48;2.03;;;0.40;;
59930;SDS011;45790;51.538;6.736;2023-07-20T10:36:15;2.10;;;0.50;;
59930;SDS011;45790;51.538;6.736;2023-07-20T10:39:01;2.20;;;0.50;;
59930;SDS011;45790;51.538;6.736;2023-07-20T10:41:33;1.88;;;0.60;;
59930;SDS011;45790;51.538;6.736;2023-07-20T10:44:00;0.60;;;0.50;;
59930;SDS011;45790;51.538;6.736;2023-07-20T10:46:41;1.65;;;0.40;;
59930;SDS011;45790;51.538;6.736;2023-07-20T10:49:08;1.27;;;0.60;;
59930;SDS011;45790;51.538;6.736;2023-07-20T10:51:40;1.38;;;0.70;;
59930;SDS011;45790;51.538;6.736;2023-07-20T10:56:40;0.95;;;0.50;;
59930;SDS011;45790;51.538;6.736;2023-07-20T10:59:17;1.10;;;0.50;;
59930;SDS011;45790;51.538;6.736;2023-07-20T11:01:43;1.45;;;0.50;;
59930;SDS011;45790;51.538;6.736;2023-07-20T11:04:09;1.60;;;0.55;;
59930;SDS011;45790;51.538;6.736;2023-07-20T11:06:34;2.73;;;0.60;;
59930;SDS011;45790;51.538;6.736;2023-07-20T11:11:29;0.85;;;0.50;;
59930;SDS011;45790;51.538;6.736;2023-07-20T11:13:56;1.15;;;0.60;;
59930;SDS011;45790;51.538;6.736;2023-07-20T11:16:32;0.45;;;0.40;;
59930;SDS011;45790;51.538;6.736;2023-07-20T11:18:58;0.85;;;0.50;;
59930;SDS011;45790;51.538;6.736;2023-07-20T11:21:24;1.27;;;0.50;;
59930;SDS011;45790;51.538;6.736;2023-07-20T11:23:49;1.38;;;0.60;;
59930;SDS011;45790;51.538;6.736;2023-07-20T11:26:15;0.80;;;0.40;;
59930;SDS011;45790;51.538;6.736;2023-07-20T11:28:40;0.77;;;0.40;;
59930;SDS011;45790;51.538;6.736;2023-07-20T11:31:06;1.70;;;0.50;;
59930;SDS011;45790;51.538;6.736;2023-07-20T11:33:31;1.00;;;0.32;;
59930;SDS011;45790;51.538;6.736;2023-07-20T11:35:56;1.23;;;0.50;;
59930;SDS011;45790;51.538;6.736;2023-07-20T11:38:23;1.15;;;0.50;;
59930;SDS011;45790;51.538;6.736;2023-07-20T11:40:48;2.10;;;0.60;;
59930;SDS011;45790;51.538;6.736;2023-07-20T11:43:14;2.63;;;0.57;;
59930;SDS011;45790;51.538;6.736;2023-07-20T11:45:40;1.10;;;0.50;;
59930;SDS011;45790;51.538;6.736;2023-07-20T11:48:05;0.77;;;0.57;;
59930;SDS011;45790;51.538;6.736;2023-07-20T11:50:30;0.73;;;0.47;;
59930;SDS011;45790;51.538;6.736;2023-07-20T11:52:55;1.48;;;0.70;;
59930;SDS011;45790;51.538;6.736;2023-07-20T11:55:21;0.90;;;0.45;;
59930;SDS011;45790;51.538;6.736;2023-07-20T11:58:05;2.17;;;0.63;;
59930;SDS011;45790;51.538;6.736;2023-07-20T12:00:30;1.45;;;0.70;;
59930;SDS011;45790;51.538;6.736;2023-07-20T12:02:56;1.20;;;0.70;;
59930;SDS011;45790;51.538;6.736;2023-07-20T12:05:24;1.27;;;0.40;;
59930;SDS011;45790;51.538;6.736;2023-07-20T12:07:49;2.95;;;0.50;;
59930;SDS011;45790;51.538;6.736;2023-07-20T12:10:16;0.60;;;0.40;;
59930;SDS011;45790;51.538;6.736;2023-07-20T12:12:48;3.10;;;0.50;;
59930;SDS011;45790;51.538;6.736;2023-07-20T12:15:16;1.00;;;0.50;;
59930;SDS011;45790;51.538;6.736;2023-07-20T12:17:43;1.55;;;0.47;;
59930;SDS011;45790;51.538;6.736;2023-07-20T12:20:08;1.35;;;0.47;;
59930;SDS011;45790;51.538;6.736;2023-07-20T12:22:38;1.38;;;0.52;;
59930;SDS011;45790;51.538;6.736;2023-07-20T12:25:05;0.80;;;0.50;;
59930;SDS011;45790;51.538;6.736;2023-07-20T12:27:30;1.35;;;0.38;;
59930;SDS011;45790;51.538;6.736;2023-07-20T12:29:56;1.60;;;0.40;;
59930;SDS011;45790;51.538;6.736;2023-07-20T12:32:22;0.40;;;0.30;;
59930;SDS011;45790;51.538;6.736;2023-07-20T12:34:47;1.97;;;0.60;;
59930;SDS011;45790;51.538;6.736;2023-07-20T12:37:13;2.23;;;0.60;;
59930;SDS011;45790;51.538;6.736;2023-07-20T12:39:38;0.83;;;0.40;;
59930;SDS011;45790;51.538;6.736;2023-07-20T12:42:04;2.25;;;0.60;;
59930;SDS011;45790;51.538;6.736;2023-07-20T12:44:29;0.38;;;0.30;;
59930;SDS011;45790;51.538;6.736;2023-07-20T12:46:55;0.98;;;0.30;;
59930;SDS011;45790;51.538;6.736;2023-07-20T12:49:20;1.73;;;0.60;;
59930;SDS011;45790;51.538;6.736;2023-07-20T12:51:45;0.87;;;0.43;;
59930;SDS011;45790;51.538;6.736;2023-07-20T12:54:10;0.70;;;0.40;;
59930;SDS011;45790;51.538;6.736;2023-07-20T12:56:36;1.38;;;0.43;;
59930;SDS011;45790;51.538;6.736;2023-07-20T12:59:01;1.10;;;0.50;;
59930;SDS011;45790;51.538;6.736;2023-07-20T13:01:28;1.33;;;0.40;;
59930;SDS011;45790;51.538;6.736;2023-07-20T13:03:53;3.25;;;0.57;;
59930;SDS011;45790;51.538;6.736;2023-07-20T13:06:19;1.50;;;0.40;;
59930;SDS011;45790;51.538;6.736;2023-07-20T13:08:44;0.85;;;0.47;;
59930;SDS011;45790;51.538;6.736;2023-07-20T13:11:11;0.98;;;0.40;;
59930;SDS011;45790;51.538;6.736;2023-07-20T13:13:36;0.83;;;0.50;;
59930;SDS011;45790;51.538;6.736;2023-07-20T13:16:01;1.50;;;0.50;;
59930;SDS011;45790;51.538;6.736;2023-07-20T13:18:26;3.33;;;0.50;;
59930;SDS011;45790;51.538;6.736;2023-07-20T13:20:52;1.13;;;0.60;;
59930;SDS011;45790;51.538;6.736;2023-07-20T13:23:17;2.47;;;0.70;;
59930;SDS011;45790;51.538;6.736;2023-07-20T13:25:42;1.20;;;0.53;;
59930;SDS011;45790;51.538;6.736;2023-07-20T13:28:07;1.13;;;0.57;;
59930;SDS011;45790;51.538;6.736;2023-07-20T13:30:33;1.50;;;0.57;;
59930;SDS011;45790;51.538;6.736;2023-07-20T13:32:58;1.52;;;0.50;;
59930;SDS011;45790;51.538;6.736;2023-07-20T13:35:23;2.65;;;0.60;;
59930;SDS011;45790;51.538;6.736;2023-07-20T13:37:49;0.70;;;0.40;;
59930;SDS011;45790;51.538;6.736;2023-07-20T13:40:15;3.53;;;0.50;;
59930;SDS011;45790;51.538;6.736;2023-07-20T13:42:41;0.80;;;0.45;;
59930;SDS011;45790;51.538;6.736;2023-07-20T13:45:07;0.90;;;0.40;;
59930;SDS011;45790;51.538;6.736;2023-07-20T13:47:32;1.77;;;0.50;;
59930;SDS011;45790;51.538;6.736;2023-07-20T13:49:58;0.82;;;0.50;;
59930;SDS011;45790;51.538;6.736;2023-07-20T13:52:23;2.80;;;0.60;;
59930;SDS011;45790;51.538;6.736;2023-07-20T13:54:48;1.15;;;0.40;;
59930;SDS011;45790;51.538;6.736;2023-07-20T13:57:14;0.98;;;0.50;;
59930;SDS011;45790;51.538;6.736;2023-07-20T13:59:40;2.47;;;0.60;;
59930;SDS011;45790;51.538;6.736;2023-07-20T14:02:05;1.52;;;0.60;;
59930;SDS011;45790;51.538;6.736;2023-07-20T14:04:30;1.17;;;0.50;;
59930;SDS011;45790;51.538;6.736;2023-07-20T14:06:55;2.90;;;0.70;;
59930;SDS011;45790;51.538;6.736;2023-07-20T14:09:20;0.60;;;0.43;;
59930;SDS011;45790;51.538;6.736;2023-07-20T14:11:46;1.55;;;0.60;;
59930;SDS011;45790;51.538;6.736;2023-07-20T14:14:11;1.83;;;0.60;;
59930;SDS011;45790;51.538;6.736;2023-07-20T14:16:36;1.27;;;0.40;;
59930;SDS011;45790;51.538;6.736;2023-07-20T14:19:01;1.55;;;0.70;;
59930;SDS011;45790;51.538;6.736;2023-07-20T14:21:27;3.33;;;0.70;;
59930;SDS011;45790;51.538;6.736;2023-07-20T14:23:53;0.75;;;0.50;;
59930;SDS011;45790;51.538;6.736;2023-07-20T14:26:18;1.20;;;0.50;;
59930;SDS011;45790;51.538;6.736;2023-07-20T14:28:44;4.23;;;0.60;;
59930;SDS011;45790;51.538;6.736;2023-07-20T14:31:09;0.95;;;0.60;;
59930;SDS011;45790;51.538;6.736;2023-07-20T14:33:34;1.33;;;0.57;;
59930;SDS011;45790;51.538;6.736;2023-07-20T14:36:00;1.98;;;0.57;;
59930;SDS011;45790;51.538;6.736;2023-07-20T14:38:27;2.45;;;0.60;;
59930;SDS011;45790;51.538;6.736;2023-07-20T14:40:52;1.30;;;0.60;;
59930;SDS011;45790;51.538;6.736;2023-07-20T14:43:17;0.60;;;0.40;;
59930;SDS011;45790;51.538;6.736;2023-07-20T14:45:42;1.50;;;0.57;;
59930;SDS011;45790;51.538;6.736;2023-07-20T14:48:07;1.63;;;0.70;;
59930;SDS011;45790;51.538;6.736;2023-07-20T14:50:33;1.20;;;0.50;;
59930;SDS011;45790;51.538;6.736;2023-07-20T14:52:58;1.85;;;0.50;;
59930;SDS011;45790;51.538;6.736;2023-07-20T14:55:24;3.10;;;0.60;;
59930;SDS011;45790;51.538;6.736;2023-07-20T14:57:50;1.42;;;0.55;;
59930;SDS011;45790;51.538;6.736;2023-07-20T15:00:15;1.35;;;0.40;;